Time;durP1;ratioP1;P1;durP2;ratioP2;P2;SDS_P1;SDS_P2;PMS_P1;PMS_P2;Temp;Humidity;BMP_temperature;BMP_pressure;BME280_temperature;BME280_humidity;BME280_pressure;Samples;Min_cycle;Max_cycle;Signal;HPM_P1;HPM_P2
2023/05/08 00:01:08;;;;;;;;;10.33;9.67;;;;;16.77;72.24;101733.03;4995675;28;45474;-76
2023/05/08 00:03:34;;;;;;;;;12.00;9.00;;;;;16.73;72.98;101735.69;4995037;28;45469;-78
2023/05/08 00:06:03;;;;;;;;;12.67;9.67;;;;;16.34;73.02;101668.09;4999934;28;45529;-76
2023/05/08 00:08:28;;;;;;;;;12.33;10.00;;;;;16.66;72.96;101727.81;5000326;28;45321;-75
2023/05/08 00:10:58;;;;;;;;;13.33;12.00;;;;;16.53;72.94;101703.22;4998919;28;45386;-75
2023/05/08 00:13:23;;;;;;;;;17.00;11.33;;;;;16.59;72.41;101731.41;4997567;28;46304;-75
2023/05/08 00:15:49;;;;;;;;;15.67;12.67;;;;;16.46;73.52;101712.09;4997560;28;45476;-76
2023/05/08 00:18:15;;;;;;;;;19.33;17.33;;;;;16.58;72.49;101727.00;4997916;28;45478;-77
2023/05/08 00:20:41;;;;;;;;;14.00;12.33;;;;;16.61;71.91;101733.16;4975296;28;45383;-76
2023/05/08 00:23:07;;;;;;;;;14.00;12.00;;;;;16.33;72.42;101669.00;4995443;28;46108;-76
2023/05/08 00:25:33;;;;;;;;;11.33;11.33;;;;;16.46;71.98;101702.38;4993667;28;45989;-77
2023/05/08 00:27:59;;;;;;;;;14.33;10.00;;;;;16.56;72.52;101715.53;4994111;28;45927;-77
2023/05/08 00:30:28;;;;;;;;;13.00;11.00;;;;;16.16;72.26;101657.63;4993603;28;45359;-77
2023/05/08 00:32:54;;;;;;;;;14.33;13.00;;;;;16.51;72.49;101727.03;4994113;28;46494;-75
2023/05/08 00:35:20;;;;;;;;;13.67;11.00;;;;;16.43;72.88;101727.97;4999675;28;46103;-76
2023/05/08 00:37:45;;;;;;;;;12.00;12.00;;;;;15.98;73.39;101662.16;4996626;28;45795;-75
2023/05/08 00:40:11;;;;;;;;;16.00;14.00;;;;;16.06;72.64;101684.16;4993129;28;45353;-76
2023/05/08 00:42:37;;;;;;;;;16.67;14.33;;;;;15.71;72.95;101636.78;4995135;28;45394;-76
2023/05/08 00:45:03;;;;;;;;;12.00;10.67;;;;;16.05;73.15;101687.66;4993347;28;45301;-76
2023/05/08 00:47:30;;;;;;;;;12.00;10.67;;;;;16.25;73.15;101718.38;4997538;28;45389;-77
2023/05/08 00:49:58;;;;;;;;;10.67;10.00;;;;;15.69;73.32;101631.47;4993940;28;45398;-77
2023/05/08 00:52:27;;;;;;;;;9.67;8.67;;;;;16.20;73.62;101714.88;4994573;28;46353;-76
2023/05/08 00:54:53;;;;;;;;;11.33;8.67;;;;;16.25;72.64;101721.94;4997163;28;45250;-76
2023/05/08 00:57:21;;;;;;;;;8.33;8.33;;;;;16.28;72.49;101706.03;4983250;28;45785;-76
2023/05/08 00:59:48;;;;;;;;;10.00;8.67;;;;;16.04;72.16;101677.09;5000707;28;45516;-77
2023/05/08 01:02:15;;;;;;;;;8.67;7.67;;;;;16.32;72.43;101715.72;4996736;28;45745;-75
2023/05/08 01:04:43;;;;;;;;;11.00;9.00;;;;;16.28;73.28;101702.53;4996870;28;45496;-75
2023/05/08 01:07:10;;;;;;;;;8.00;7.33;;;;;16.01;72.10;101655.97;4996997;28;45449;-76
2023/05/08 01:09:35;;;;;;;;;9.67;8.67;;;;;16.29;72.33;101699.84;4996693;28;45503;-76
2023/05/08 01:12:06;;;;;;;;;9.00;7.67;;;;;16.29;72.04;101696.34;5000342;28;45528;-76
2023/05/08 01:15:00;;;;;;;;;9.67;9.67;;;;;16.13;72.13;101679.69;4983671;28;45330;-76
2023/05/08 01:18:09;;;;;;;;;8.00;8.00;;;;;16.22;72.13;101707.84;5001821;28;45383;-76
2023/05/08 01:20:38;;;;;;;;;8.00;7.00;;;;;16.22;72.14;101713.13;4971863;28;45583;-75
2023/05/08 01:23:42;;;;;;;;;10.33;10.33;;;;;16.17;73.44;101712.28;4997364;28;45591;-75
2023/05/08 01:26:31;;;;;;;;;15.00;10.33;;;;;16.06;72.63;101704.38;4957850;28;45546;-75
2023/05/08 01:29:19;;;;;;;;;7.00;6.33;;;;;16.13;72.68;101716.69;4955936;28;45493;-76
2023/05/08 01:32:11;;;;;;;;;12.67;10.00;;;;;16.15;72.44;101724.63;4987728;28;45453;-76
2023/05/08 01:34:49;;;;;;;;;10.33;9.33;;;;;16.14;72.50;101722.88;5000290;28;45422;-76
2023/05/08 01:37:20;;;;;;;;;12.33;9.67;;;;;16.02;72.27;101711.47;5000944;28;45500;-77
2023/05/08 01:39:57;;;;;;;;;8.00;8.00;;;;;16.01;72.02;101685.91;4997303;28;45421;-76
2023/05/08 01:42:32;;;;;;;;;8.33;8.00;;;;;15.54;71.65;101620.97;4997484;28;45412;-76
2023/05/08 01:45:09;;;;;;;;;9.00;9.00;;;;;16.18;72.09;101720.16;4997825;28;46515;-76
2023/05/08 01:47:37;;;;;;;;;13.33;11.67;;;;;15.79;72.19;101658.72;4997487;28;45745;-76
2023/05/08 01:50:11;;;;;;;;;12.67;8.67;;;;;16.11;71.61;101723.72;4997014;28;45539;-75
2023/05/08 01:52:49;;;;;;;;;11.67;9.33;;;;;16.07;72.06;101714.09;4998170;28;45458;-77
2023/05/08 01:55:29;;;;;;;;;10.33;8.67;;;;;15.63;71.67;101627.97;4980435;28;45660;-76
2023/05/08 01:57:57;;;;;;;;;11.67;8.33;;;;;15.95;71.41;101690.38;4998003;28;45519;-77
2023/05/08 02:00:28;;;;;;;;;12.00;9.33;;;;;16.07;71.53;101720.25;4979341;28;45387;-76
2023/05/08 02:02:55;;;;;;;;;13.00;12.00;;;;;15.47;71.88;101621.88;4997224;28;45284;-76
2023/05/08 02:05:23;;;;;;;;;12.67;12.00;;;;;15.48;72.40;101660.59;4995822;28;46454;-76
2023/05/08 02:07:50;;;;;;;;;14.33;12.00;;;;;15.59;72.49;101694.88;4997682;28;45456;-75
2023/05/08 02:10:17;;;;;;;;;4.67;4.33;;;;;15.38;72.80;101672.06;4979434;28;45695;-77
2023/05/08 02:12:44;;;;;;;;;13.67;10.00;;;;;15.65;72.58;101708.94;4981612;28;45381;-76
2023/05/08 02:15:15;;;;;;;;;12.33;10.00;;;;;15.42;72.23;101661.50;4997473;28;45509;-77
2023/05/08 02:17:42;;;;;;;;;11.33;10.33;;;;;15.87;71.50;101723.00;4996430;28;45385;-77
2023/05/08 02:20:13;;;;;;;;;11.00;10.67;;;;;15.38;71.78;101628.06;4996055;28;45460;-77
2023/05/08 02:22:44;;;;;;;;;13.00;11.00;;;;;16.03;71.56;101733.47;4996863;28;45439;-77
2023/05/08 02:25:13;;;;;;;;;13.00;11.00;;;;;15.73;70.92;101677.28;4998701;28;46431;-76
2023/05/08 02:27:45;;;;;;;;;18.33;13.33;;;;;16.06;71.43;101731.72;4996140;28;45668;-77
2023/05/08 02:30:15;;;;;;;;;11.33;10.33;;;;;15.66;71.15;101649.97;4997763;28;45496;-77
2023/05/08 02:32:46;;;;;;;;;11.67;11.67;;;;;15.99;70.85;101708.84;5000416;28;45337;-76
2023/05/08 02:35:15;;;;;;;;;11.00;11.00;;;;;16.11;71.50;101731.66;4996322;28;45765;-76
2023/05/08 02:37:48;;;;;;;;;14.33;14.00;;;;;15.93;70.82;101700.06;4996474;28;45409;-77
2023/05/08 02:40:16;;;;;;;;;12.67;10.67;;;;;16.11;70.71;101718.44;4982276;28;45433;-76
2023/05/08 02:42:43;;;;;;;;;16.00;12.00;;;;;15.90;70.39;101691.28;4999835;28;45444;-77
2023/05/08 02:45:11;;;;;;;;;14.33;14.00;;;;;15.99;70.46;101698.28;4996521;28;46226;-77
2023/05/08 02:47:48;;;;;;;;;14.67;11.33;;;;;16.13;70.45;101729.91;4995791;28;45992;-77
2023/05/08 02:50:31;;;;;;;;;13.67;13.67;;;;;15.75;70.22;101671.97;4995174;28;45550;-76
2023/05/08 02:53:05;;;;;;;;;14.33;11.33;;;;;16.14;70.74;101733.44;4995911;28;45539;-76
2023/05/08 02:55:51;;;;;;;;;12.00;11.33;;;;;16.06;70.31;101720.25;4986196;28;45977;-76
2023/05/08 02:58:49;;;;;;;;;13.00;10.33;;;;;16.14;70.36;101730.81;4981690;28;45525;-76
2023/05/08 03:01:34;;;;;;;;;15.67;14.00;;;;;16.07;70.28;101732.59;4973117;28;45511;-76
2023/05/08 03:04:15;;;;;;;;;16.33;15.67;;;;;16.04;69.90;101729.94;4996463;28;45317;-76
2023/05/08 03:06:45;;;;;;;;;14.67;13.33;;;;;15.96;70.20;101716.78;4983302;28;46167;-76
2023/05/08 03:09:18;;;;;;;;;16.67;14.00;;;;;15.69;69.85;101667.56;4995963;28;45256;-76
2023/05/08 03:11:48;;;;;;;;;19.00;13.67;;;;;15.99;70.30;101727.34;4982561;28;45548;-75
2023/05/08 03:14:18;;;;;;;;;18.00;14.00;;;;;15.98;70.11;101722.94;4996091;28;45485;-76
2023/05/08 03:16:46;;;;;;;;;7.33;7.33;;;;;15.73;70.24;101690.47;4977936;28;46737;-77
2023/05/08 03:19:23;;;;;;;;;16.00;15.00;;;;;15.62;70.05;101661.41;4994487;28;45504;-76
2023/05/08 03:21:51;;;;;;;;;19.00;15.33;;;;;15.93;70.54;101727.38;4998720;28;45282;-76
2023/05/08 03:24:19;;;;;;;;;15.67;14.33;;;;;15.61;70.21;101674.63;4997063;28;45431;-76
2023/05/08 03:26:45;;;;;;;;;18.33;17.00;;;;;15.88;70.10;101714.16;4994316;28;45877;-76
2023/05/08 03:29:13;;;;;;;;;20.67;15.67;;;;;15.62;70.67;101673.75;4994550;28;45585;-78
2023/05/08 03:31:41;;;;;;;;;13.33;13.33;;;;;15.75;70.13;101719.50;4976682;28;45897;-77
2023/05/08 03:34:08;;;;;;;;;18.33;18.33;;;;;15.68;70.38;101703.66;4998818;28;45592;-76
2023/05/08 03:36:34;;;;;;;;;19.00;17.33;;;;;15.83;70.08;101731.81;4998429;28;45571;-76
2023/05/08 03:39:01;;;;;;;;;24.67;18.33;;;;;15.75;69.89;101715.09;4996649;28;45564;-76
2023/05/08 03:41:28;;;;;;;;;19.00;14.00;;;;;15.78;70.29;101733.59;4995005;28;45385;-77
2023/05/08 03:43:55;;;;;;;;;16.67;15.67;;;;;15.42;70.22;101687.00;4976914;28;45955;-76
2023/05/08 03:46:22;;;;;;;;;16.00;13.00;;;;;14.91;70.38;101599.19;4994861;28;46423;-75
2023/05/08 03:48:49;;;;;;;;;21.33;15.67;;;;;15.16;69.96;101642.22;4997557;28;45517;-76
2023/05/08 03:51:16;;;;;;;;;22.00;18.33;;;;;15.59;70.40;101719.53;4997522;28;45721;-76
2023/05/08 03:53:42;;;;;;;;;21.00;19.00;;;;;15.55;69.94;101716.91;4980399;28;45286;-77
2023/05/08 03:56:08;;;;;;;;;26.00;19.33;;;;;15.42;70.28;101689.66;4995612;28;45683;-77
2023/05/08 03:58:40;;;;;;;;;18.33;16.00;;;;;15.63;70.12;101734.47;4999489;28;45322;-76
2023/05/08 04:01:36;;;;;;;;;22.33;18.33;;;;;15.60;70.20;101733.63;4994687;28;45371;-77
2023/05/08 04:04:15;;;;;;;;;21.00;16.67;;;;;15.53;70.54;101727.47;4994070;28;45604;-77
2023/05/08 04:06:49;;;;;;;;;14.33;13.33;;;;;15.40;70.50;101701.97;4996500;28;46317;-76
2023/05/08 04:09:38;;;;;;;;;15.33;13.33;;;;;15.47;70.62;101704.59;4997858;28;45431;-76
2023/05/08 04:12:44;;;;;;;;;18.33;17.33;;;;;15.27;70.73;101680.88;4978466;28;45531;-76
2023/05/08 04:15:17;;;;;;;;;21.67;16.33;;;;;15.25;70.27;101669.44;4993949;28;45516;-77
2023/05/08 04:17:58;;;;;;;;;21.67;17.00;;;;;15.63;70.42;101725.66;4997105;28;46289;-77
2023/05/08 04:20:28;;;;;;;;;17.67;16.67;;;;;15.51;70.07;101710.75;4997346;28;45280;-76
2023/05/08 04:22:56;;;;;;;;;22.67;21.33;;;;;15.12;70.13;101638.72;4979913;28;45415;-76
2023/05/08 04:25:21;;;;;;;;;22.00;18.67;;;;;15.45;69.97;101706.38;4997903;28;45563;-76
2023/05/08 04:27:50;;;;;;;;;19.33;18.00;;;;;15.56;70.19;101726.56;4993168;28;46356;-77
2023/05/08 04:30:16;;;;;;;;;26.00;20.00;;;;;15.44;69.91;101696.66;4993431;28;45424;-75
2023/05/08 04:32:43;;;;;;;;;26.67;19.33;;;;;15.38;69.78;101691.44;4993768;28;45534;-76
2023/05/08 04:35:12;;;;;;;;;22.67;19.00;;;;;15.34;69.49;101687.03;4993292;28;45492;-75
2023/05/08 04:37:42;;;;;;;;;18.33;15.33;;;;;15.17;70.08;101655.41;4993523;28;45474;-74
2023/05/08 04:40:12;;;;;;;;;24.67;17.33;;;;;15.54;69.62;101712.50;4996209;28;45409;-75
2023/05/08 04:42:41;;;;;;;;;21.33;19.33;;;;;15.45;69.70;101698.44;4997850;28;45454;-75
2023/05/08 04:45:07;;;;;;;;;26.00;16.67;;;;;15.31;69.42;101673.84;4998138;28;45377;-76
2023/05/08 04:47:33;;;;;;;;;19.00;17.00;;;;;15.35;69.92;101691.44;4995670;28;46238;-76
2023/05/08 04:49:59;;;;;;;;;20.00;16.33;;;;;15.33;69.60;101687.94;4993269;28;45544;-76
2023/05/08 04:52:27;;;;;;;;;22.33;18.67;;;;;15.37;68.96;101684.38;4993566;28;45551;-76
2023/05/08 04:54:53;;;;;;;;;21.33;16.33;;;;;15.18;69.25;101654.50;4992931;28;45421;-76
2023/05/08 04:57:19;;;;;;;;;22.33;17.33;;;;;15.61;69.31;101733.63;4978840;28;46573;-76
2023/05/08 04:59:44;;;;;;;;;23.00;18.00;;;;;15.63;69.33;101728.31;4997208;28;45433;-76
2023/05/08 05:02:10;;;;;;;;;20.00;19.00;;;;;15.59;69.54;101731.84;4995413;28;45310;-75
2023/05/08 05:04:36;;;;;;;;;21.33;18.00;;;;;15.32;69.53;101695.84;4975624;28;45591;-76
2023/05/08 05:07:02;;;;;;;;;19.00;16.67;;;;;15.64;69.49;101732.72;4992567;28;45643;-76
2023/05/08 05:09:28;;;;;;;;;22.00;16.33;;;;;15.67;68.93;101735.34;4993072;28;45572;-75
2023/05/08 05:11:54;;;;;;;;;20.00;17.00;;;;;15.45;69.12;101692.28;4993042;28;45777;-75
2023/05/08 05:14:20;;;;;;;;;20.33;16.67;;;;;15.41;68.89;101694.06;4976203;28;45939;-75
2023/05/08 05:16:46;;;;;;;;;16.00;15.33;;;;;15.50;69.16;101722.19;4995166;28;46024;-76
2023/05/08 05:19:12;;;;;;;;;18.00;17.33;;;;;15.64;69.19;101743.28;4992791;28;45444;-76
2023/05/08 05:21:38;;;;;;;;;17.67;14.00;;;;;15.60;68.87;101738.91;4995741;28;45369;-75
2023/05/08 05:24:04;;;;;;;;;20.33;15.67;;;;;15.48;68.96;101745.94;4993448;28;45464;-76
2023/05/08 05:26:30;;;;;;;;;17.33;15.00;;;;;15.35;69.11;101714.28;4992730;28;46256;-76
2023/05/08 05:28:57;;;;;;;;;16.67;15.33;;;;;15.48;68.78;101732.75;4996931;28;45519;-76
2023/05/08 05:31:22;;;;;;;;;14.33;14.33;;;;;15.71;68.55;101763.56;4997019;28;45506;-76
2023/05/08 05:33:48;;;;;;;;;20.00;15.33;;;;;15.73;68.48;101776.72;4997497;28;45451;-76
2023/05/08 05:36:13;;;;;;;;;15.67;14.00;;;;;14.97;67.55;101639.63;4996810;28;45955;-76
2023/05/08 05:38:39;;;;;;;;;16.67;11.33;;;;;15.69;67.98;101762.63;4996307;28;45500;-76
2023/05/08 05:41:05;;;;;;;;;12.33;11.33;;;;;15.60;67.68;101741.53;4999137;28;45556;-76
2023/05/08 05:43:31;;;;;;;;;16.67;14.00;;;;;15.59;67.61;101732.75;4995268;28;45571;-75
2023/05/08 05:46:03;;;;;;;;;17.33;13.67;;;;;15.80;67.59;101775.81;4996853;28;46167;-77
2023/05/08 05:48:30;;;;;;;;;18.67;13.67;;;;;15.72;67.29;101767.06;4997375;28;45413;-76
2023/05/08 05:50:58;;;;;;;;;15.00;13.00;;;;;15.72;67.88;101767.94;4978271;28;45353;-76
2023/05/08 05:53:24;;;;;;;;;15.00;13.00;;;;;15.66;67.46;101752.97;4999433;28;45493;-75
2023/05/08 05:55:50;;;;;;;;;16.00;12.33;;;;;15.77;67.63;101776.72;4999123;28;46433;-76
2023/05/08 05:58:15;;;;;;;;;15.67;11.00;;;;;15.85;67.92;101776.69;4994981;28;45480;-75
2023/05/08 06:00:42;;;;;;;;;17.33;15.00;;;;;15.85;67.76;101781.97;4995477;28;45468;-77
2023/05/08 06:03:09;;;;;;;;;18.33;13.33;;;;;15.92;67.87;101786.34;4995987;28;45586;-76
2023/05/08 06:05:35;;;;;;;;;19.33;13.33;;;;;15.97;67.65;101791.63;4995242;28;45576;-76
2023/05/08 06:08:01;;;;;;;;;15.67;13.33;;;;;15.92;67.83;101783.72;4994683;28;45428;-75
2023/05/08 06:10:27;;;;;;;;;21.67;17.00;;;;;15.56;67.31;101724.81;4996069;28;45647;-81
2023/05/08 06:12:53;;;;;;;;;16.33;14.00;;;;;15.97;67.37;101786.34;4995462;28;45655;-76
2023/05/08 06:15:19;;;;;;;;;18.67;14.67;;;;;16.15;69.08;101795.97;4977761;28;47273;-71
2023/05/08 06:17:44;;;;;;;;;13.00;11.33;;;;;16.27;68.99;101803.84;4994937;28;45384;-77
2023/05/08 06:20:10;;;;;;;;;14.00;9.33;;;;;16.13;68.33;101756.31;4995190;28;45722;-75
2023/05/08 06:22:40;;;;;;;;;13.67;12.33;;;;;16.16;70.04;101764.25;4998873;28;45450;-71
2023/05/08 06:25:07;;;;;;;;;12.33;12.33;;;;;16.44;68.51;101801.09;4999600;28;45820;-73
2023/05/08 06:27:33;;;;;;;;;11.00;11.00;;;;;16.45;69.91;101794.97;4999125;28;45374;-74
2023/05/08 06:29:59;;;;;;;;;10.67;9.33;;;;;16.66;67.38;101810.69;4998958;28;45535;-73
2023/05/08 06:32:28;;;;;;;;;13.33;11.33;;;;;16.70;67.63;101799.22;4999723;28;45400;-77
2023/05/08 06:34:54;;;;;;;;;16.00;15.00;;;;;16.52;65.96;101763.16;4999499;28;45538;-76
2023/05/08 06:37:19;;;;;;;;;11.33;8.67;;;;;16.35;64.55;101750.91;4998945;28;45575;-75
2023/05/08 06:39:45;;;;;;;;;16.67;12.67;;;;;16.56;64.86;101786.94;4977090;28;45568;-76
2023/05/08 06:42:11;;;;;;;;;15.67;12.67;;;;;16.43;66.12;101762.34;4977330;28;45637;-74
2023/05/08 06:44:36;;;;;;;;;12.33;11.00;;;;;16.57;65.62;101783.44;4995134;28;46164;-74
2023/05/08 06:47:02;;;;;;;;;12.67;11.67;;;;;16.62;65.90;101794.84;4997126;28;45829;-78
2023/05/08 06:49:28;;;;;;;;;13.33;11.33;;;;;16.77;65.73;101813.25;4981632;28;45468;-75
2023/05/08 06:51:53;;;;;;;;;14.33;10.67;;;;;16.73;65.45;101800.97;4994434;28;45412;-75
2023/05/08 06:54:19;;;;;;;;;13.67;11.00;;;;;16.62;64.99;101773.69;4995645;28;46303;-77
2023/05/08 06:56:45;;;;;;;;;16.67;13.33;;;;;16.82;64.53;101802.69;4998880;28;45610;-73
2023/05/08 06:59:11;;;;;;;;;13.00;11.67;;;;;16.61;65.16;101763.97;4996705;28;45777;-81
2023/05/08 07:01:37;;;;;;;;;12.33;10.33;;;;;16.70;65.42;101778.06;4995264;28;45601;-69
2023/05/08 07:04:04;;;;;;;;;12.33;12.33;;;;;17.01;65.14;101814.88;4997788;28;45567;-74
2023/05/08 07:06:30;;;;;;;;;12.33;9.00;;;;;17.02;65.01;101819.31;4998709;28;45488;-76
2023/05/08 07:08:56;;;;;;;;;14.67;12.00;;;;;17.07;64.32;101813.97;4980716;28;45444;-70
2023/05/08 07:11:25;;;;;;;;;11.00;10.67;;;;;17.07;63.99;101816.63;4999129;28;45480;-78
2023/05/08 07:13:51;;;;;;;;;12.67;10.67;;;;;17.00;63.56;101810.50;4981290;28;47592;-77
2023/05/08 07:16:16;;;;;;;;;13.33;10.67;;;;;16.64;63.21;101758.69;4998493;28;45514;-77
2023/05/08 07:18:43;;;;;;;;;15.67;11.33;;;;;17.04;63.97;101830.75;4995154;28;45470;-79
2023/05/08 07:21:09;;;;;;;;;13.67;13.67;;;;;16.86;64.33;101797.34;4995162;28;45637;-74
2023/05/08 07:23:35;;;;;;;;;14.00;11.33;;;;;16.88;63.60;101784.13;4995959;28;45704;-77
2023/05/08 07:26:01;;;;;;;;;20.00;15.00;;;;;17.23;63.21;101835.91;4996351;28;45230;-77
2023/05/08 07:28:28;;;;;;;;;18.33;14.67;;;;;17.22;63.11;101839.44;4994858;28;45738;-78
2023/05/08 07:30:53;;;;;;;;;14.33;12.00;;;;;17.17;62.68;101842.13;4994418;28;45678;-78
2023/05/08 07:33:25;;;;;;;;;13.33;10.00;;;;;17.12;62.86;101839.50;4993542;28;45555;-75
2023/05/08 07:35:51;;;;;;;;;12.33;10.33;;;;;17.12;62.94;101849.22;4992702;28;45547;-75
2023/05/08 07:38:17;;;;;;;;;10.33;9.00;;;;;16.95;62.79;101817.59;4994448;28;45375;-78
2023/05/08 07:40:43;;;;;;;;;14.00;11.67;;;;;16.89;62.68;101813.19;4994566;28;45781;-75
2023/05/08 07:43:09;;;;;;;;;9.67;9.67;;;;;17.11;62.96;101852.78;4996394;28;45408;-75
2023/05/08 07:45:34;;;;;;;;;13.00;11.67;;;;;17.21;62.40;101867.69;4993568;28;45510;-77
2023/05/08 07:48:00;;;;;;;;;11.33;8.67;;;;;16.68;61.80;101757.75;4994112;28;45481;-79
2023/05/08 07:50:26;;;;;;;;;15.67;11.00;;;;;17.08;61.61;101815.72;4994277;28;45302;-79
2023/05/08 07:52:51;;;;;;;;;11.33;10.33;;;;;17.16;61.55;101840.38;4998130;28;46063;-78
2023/05/08 07:55:18;;;;;;;;;9.67;9.00;;;;;16.82;61.50;101773.56;4998312;28;45533;-77
2023/05/08 07:57:44;;;;;;;;;11.33;8.67;;;;;17.29;61.17;101835.84;4998508;28;45413;-79
2023/05/08 08:00:12;;;;;;;;;16.00;12.33;;;;;17.23;60.61;101860.63;4981091;28;45565;-75
2023/05/08 08:02:38;;;;;;;;;10.33;9.33;;;;;16.77;61.63;101784.16;4992842;28;45424;-78
2023/05/08 08:05:05;;;;;;;;;12.00;8.67;;;;;17.41;60.98;101869.31;4994426;28;45401;-77
2023/05/08 08:07:34;;;;;;;;;7.67;7.67;;;;;17.50;60.95;101869.22;4994497;28;45357;-75
2023/05/08 08:10:00;;;;;;;;;7.33;7.00;;;;;17.50;60.91;101850.69;4998075;28;45440;-76
2023/05/08 08:12:27;;;;;;;;;11.00;6.67;;;;;17.29;60.60;101809.38;4997538;28;46885;-80
2023/05/08 08:14:53;;;;;;;;;6.33;6.33;;;;;17.67;60.50;101864.66;4997832;28;45449;-75
2023/05/08 08:17:19;;;;;;;;;11.67;10.33;;;;;17.57;60.22;101847.09;4981597;28;45290;-72
2023/05/08 08:19:44;;;;;;;;;11.33;9.33;;;;;17.40;61.48;101846.38;4998770;28;45436;-74
2023/05/08 08:22:10;;;;;;;;;10.33;8.67;;;;;17.27;61.38;101833.22;4998179;28;45638;-72
2023/05/08 08:24:36;;;;;;;;;9.67;9.33;;;;;17.41;61.11;101833.09;4997469;28;45638;-74
2023/05/08 08:27:03;;;;;;;;;13.67;12.67;;;;;17.42;61.95;101839.28;4997969;28;46168;-73
2023/05/08 08:29:29;;;;;;;;;10.67;10.67;;;;;17.44;60.96;101817.19;4998467;28;45469;-75
2023/05/08 08:31:55;;;;;;;;;11.67;9.67;;;;;17.50;62.23;101809.19;4997743;28;45278;-74
2023/05/08 08:34:20;;;;;;;;;15.33;13.67;;;;;17.65;60.29;101816.09;4975223;28;45461;-74
2023/05/08 08:36:46;;;;;;;;;12.33;11.33;;;;;17.89;60.09;101860.06;4993504;28;45486;-74
2023/05/08 08:39:12;;;;;;;;;10.67;8.67;;;;;17.92;59.98;101857.38;4995492;28;45627;-76
2023/05/08 08:41:38;;;;;;;;;7.00;7.00;;;;;17.92;60.12;101852.06;4997432;28;45511;-74
2023/05/08 08:44:04;;;;;;;;;9.00;8.67;;;;;18.12;59.77;101873.03;4975762;28;45638;-75
2023/05/08 08:46:32;;;;;;;;;11.67;10.00;;;;;18.17;59.94;101873.88;4993343;28;45341;-79
2023/05/08 08:49:05;;;;;;;;;8.33;8.33;;;;;18.17;59.18;101871.22;4994565;28;45925;-73
2023/05/08 08:51:45;;;;;;;;;12.00;8.67;;;;;18.11;59.54;101871.31;4995136;28;45984;-76
2023/05/08 08:54:16;;;;;;;;;12.33;12.33;;;;;17.59;59.84;101808.22;4983038;28;45448;-74
2023/05/08 08:56:44;;;;;;;;;10.67;10.00;;;;;18.04;60.19;101880.22;4975501;28;45632;-74
2023/05/08 08:59:15;;;;;;;;;11.33;10.00;;;;;17.98;60.69;101872.31;4992870;28;45867;-74
2023/05/08 09:01:44;;;;;;;;;6.33;5.67;;;;;17.75;62.89;101816.91;4993879;28;45498;-73
2023/05/08 09:04:10;;;;;;;;;13.00;9.67;;;;;18.11;60.25;101871.31;4996800;28;45473;-73
2023/05/08 09:06:37;;;;;;;;;11.00;9.00;;;;;18.14;60.48;101865.97;4998987;28;45529;-73
2023/05/08 09:09:03;;;;;;;;;8.00;8.00;;;;;18.13;59.42;101877.47;4972922;28;45391;-73
2023/05/08 09:11:29;;;;;;;;;12.00;10.33;;;;;17.81;59.74;101832.75;4981114;28;45714;-72
2023/05/08 09:13:56;;;;;;;;;12.00;9.00;;;;;17.87;59.57;101866.25;4982451;28;45683;-75
2023/05/08 09:16:23;;;;;;;;;10.33;6.00;;;;;17.75;59.83;101860.16;5003475;28;45543;-77
2023/05/08 09:18:49;;;;;;;;;11.33;7.33;;;;;17.93;59.98;101888.28;5003386;28;45394;-76
2023/05/08 09:21:15;;;;;;;;;9.33;7.33;;;;;17.83;60.01;101876.00;5003763;28;46509;-78
2023/05/08 09:24:01;;;;;;;;;8.67;8.00;;;;;17.85;60.23;101886.59;4982654;28;45398;-75
2023/05/08 09:26:37;;;;;;;;;7.67;7.67;;;;;17.81;60.41;101888.41;5002167;28;45454;-77
2023/05/08 09:29:14;;;;;;;;;7.00;5.00;;;;;17.76;60.72;101885.75;5002320;28;45525;-79
2023/05/08 09:31:45;;;;;;;;;14.67;8.00;;;;;17.76;60.62;101880.44;4998385;28;46101;-75
2023/05/08 09:34:32;;;;;;;;;4.67;4.67;;;;;17.31;60.38;101811.13;4997893;28;45442;-77
2023/05/08 09:37:03;;;;;;;;;8.00;7.00;;;;;17.67;60.66;101880.53;4989986;28;45294;-76
2023/05/08 09:39:29;;;;;;;;;10.00;6.67;;;;;17.53;60.60;101853.28;4998663;28;46149;-76
2023/05/08 09:41:59;;;;;;;;;8.00;7.00;;;;;17.53;60.56;101848.88;4996333;28;46585;-75
2023/05/08 09:44:43;;;;;;;;;8.00;8.00;;;;;17.46;60.93;101830.41;4999387;28;45463;-74
2023/05/08 09:47:21;;;;;;;;;8.67;8.00;;;;;17.62;60.31;101852.34;4975040;28;45438;-75
2023/05/08 09:50:03;;;;;;;;;12.33;8.67;;;;;17.65;60.21;101862.91;4978673;28;45555;-74
2023/05/08 09:52:30;;;;;;;;;14.00;10.33;;;;;17.49;60.80;101844.53;4978147;28;46764;-75
2023/05/08 09:55:01;;;;;;;;;10.00;8.00;;;;;17.75;60.17;101851.34;4996399;28;45326;-75
2023/05/08 09:57:28;;;;;;;;;15.67;10.67;;;;;18.08;59.45;101852.78;4996152;28;45494;-75
2023/05/08 10:00:01;;;;;;;;;11.00;9.00;;;;;18.54;59.41;101868.13;4997045;28;45444;-76
2023/05/08 10:02:27;;;;;;;;;17.00;10.00;;;;;19.00;57.70;101853.34;5014846;28;46795;-74
2023/05/08 10:04:52;;;;;;;;;11.00;8.00;;;;;19.44;57.94;101849.13;4999378;28;45516;-73
2023/05/08 10:07:32;;;;;;;;;12.00;11.33;;;;;19.66;56.75;101831.00;4999706;28;45515;-72
2023/05/08 10:10:00;;;;;;;;;8.33;7.00;;;;;20.03;55.75;101833.00;4999015;28;45590;-72
2023/05/08 10:12:27;;;;;;;;;8.67;8.33;;;;;20.26;53.59;101846.72;4995280;28;45532;-76
2023/05/08 10:14:54;;;;;;;;;7.67;7.67;;;;;20.21;53.11;101813.13;4995492;28;45486;-76
2023/05/08 10:17:26;;;;;;;;;10.00;10.00;;;;;20.14;52.03;101799.06;4995769;28;45727;-75
2023/05/08 10:19:59;;;;;;;;;9.67;9.67;;;;;19.86;51.93;101773.06;4991356;28;45436;-75
2023/05/08 10:22:26;;;;;;;;;11.67;9.33;;;;;19.47;53.15;101735.69;4995885;28;46187;-76
2023/05/08 10:24:59;;;;;;;;;9.67;9.67;;;;;20.23;53.05;101819.28;4993518;28;46424;-75
2023/05/08 10:27:43;;;;;;;;;10.33;9.33;;;;;20.20;53.73;101801.59;4996753;28;45558;-75
2023/05/08 10:30:22;;;;;;;;;15.00;13.00;;;;;20.21;52.89;101807.78;4997014;28;45345;-79
2023/05/08 10:32:53;;;;;;;;;11.00;10.67;;;;;20.20;53.42;101825.53;4996466;28;45851;-76
2023/05/08 10:35:20;;;;;;;;;16.67;13.67;;;;;19.94;52.81;101793.28;4967229;28;45616;-77
2023/05/08 10:37:47;;;;;;;;;11.00;10.00;;;;;19.98;53.19;101816.25;5002542;28;45513;-76
2023/05/08 10:40:17;;;;;;;;;9.00;7.33;;;;;20.12;53.94;101819.50;5004158;28;45581;-77
2023/05/08 10:42:44;;;;;;;;;12.33;8.00;;;;;20.24;53.53;101767.81;4990685;28;46782;-77
2023/05/08 10:45:10;;;;;;;;;9.00;9.00;;;;;20.35;51.95;101752.50;4985119;28;45451;-82
2023/05/08 10:48:21;;;;;;;;;7.00;7.00;;;;;20.83;52.12;101768.25;5002979;28;45455;-75
2023/05/08 10:51:00;;;;;;;;;6.00;6.00;;;;;21.40;51.21;101806.81;4923025;28;45632;-78
2023/05/08 10:53:37;;;;;;;;;8.67;6.33;;;;;21.16;49.64;101731.91;5002260;28;46123;-74
2023/05/08 10:56:04;;;;;;;;;8.67;8.00;;;;;21.60;50.69;101801.84;5003088;28;45480;-74
2023/05/08 10:58:36;;;;;;;;;6.00;6.00;;;;;21.68;50.75;101806.09;5008147;28;45369;-74
2023/05/08 11:01:07;;;;;;;;;7.67;6.33;;;;;21.75;50.32;101797.88;5000912;28;45623;-73
2023/05/08 11:03:45;;;;;;;;;15.00;10.67;;;;;21.67;49.10;101786.56;5001731;28;45056;-77
2023/05/08 11:06:11;;;;;;;;;8.00;6.67;;;;;21.63;49.81;101790.22;4999915;28;45499;-74
2023/05/08 11:08:48;;;;;;;;;9.00;8.00;;;;;21.60;49.28;101769.84;4998193;28;45507;-76
2023/05/08 11:11:25;;;;;;;;;10.67;6.67;;;;;21.60;49.13;101769.00;4980451;28;45492;-76
2023/05/08 11:14:08;;;;;;;;;7.67;7.00;;;;;21.51;49.19;101745.25;4995681;28;45710;-76
2023/05/08 11:17:07;;;;;;;;;7.67;7.33;;;;;21.67;48.38;101765.22;4975462;28;45456;-75
2023/05/08 11:19:33;;;;;;;;;7.33;7.33;;;;;21.67;48.89;101761.69;4960502;28;45406;-75
2023/05/08 11:22:22;;;;;;;;;10.67;9.33;;;;;21.78;50.06;101755.16;4997926;28;45498;-76
2023/05/08 11:25:09;;;;;;;;;53.25;40.75;;;;;21.87;50.27;101748.66;4995021;28;45475;-72
2023/05/08 11:27:58;;;;;;;;;124.33;107.67;;;;;21.95;50.30;101765.31;4994037;28;45831;-75